< < Back
Terminal Aerodrome Forecast


Current Version              Previous Versions:   1  2  3  4  5  6  7  8  9  

Terminal Aerodrome Forecast

504
FTUS42 KTAE 201733
TAFABY
TAF
KABY 201733Z 2018/2118 23014KT P6SM OVC050
     FM210600 30005KT P6SM BKN250=



Latest METAR

550
SAUS70 KWBC 210600 RRW
MTRABY
METAR KABY 210553Z AUTO 31006KT 10SM CLR 18/16 A2992 RMK AO2 SLP129
60000 T01830156 10217 20183 51013


USA.gov is the U.S. government's official web portal to all federal, state and local government web resources and services.